sensor_id;sensor_type;location;lat;lon;timestamp;P1;durP1;ratioP1;P2;durP2;ratioP2
57635;SDS011;43465;50.728;4.160;2023-05-07T00:02:21;10.32;;;3.60;;
57635;SDS011;43465;50.728;4.160;2023-05-07T00:04:47;7.57;;;3.45;;
57635;SDS011;43465;50.728;4.160;2023-05-07T00:07:14;8.02;;;3.88;;
57635;SDS011;43465;50.728;4.160;2023-05-07T00:09:40;7.38;;;4.03;;
57635;SDS011;43465;50.728;4.160;2023-05-07T00:12:06;9.32;;;4.10;;
57635;SDS011;43465;50.728;4.160;2023-05-07T00:14:32;10.43;;;4.90;;
57635;SDS011;43465;50.728;4.160;2023-05-07T00:16:57;9.18;;;4.47;;
57635;SDS011;43465;50.728;4.160;2023-05-07T00:19:23;6.43;;;4.07;;
57635;SDS011;43465;50.728;4.160;2023-05-07T00:21:49;7.82;;;4.35;;
57635;SDS011;43465;50.728;4.160;2023-05-07T00:24:15;10.07;;;4.22;;
57635;SDS011;43465;50.728;4.160;2023-05-07T00:26:40;10.07;;;4.15;;
57635;SDS011;43465;50.728;4.160;2023-05-07T00:29:06;8.18;;;3.80;;
57635;SDS011;43465;50.728;4.160;2023-05-07T00:31:32;7.53;;;3.90;;
57635;SDS011;43465;50.728;4.160;2023-05-07T00:33:58;7.53;;;3.95;;
57635;SDS011;43465;50.728;4.160;2023-05-07T00:36:23;8.93;;;4.18;;
57635;SDS011;43465;50.728;4.160;2023-05-07T00:38:49;7.38;;;4.53;;
57635;SDS011;43465;50.728;4.160;2023-05-07T00:41:15;10.55;;;4.68;;
57635;SDS011;43465;50.728;4.160;2023-05-07T00:43:40;10.55;;;4.95;;
57635;SDS011;43465;50.728;4.160;2023-05-07T00:46:06;12.45;;;4.60;;
57635;SDS011;43465;50.728;4.160;2023-05-07T00:48:32;8.70;;;4.50;;
57635;SDS011;43465;50.728;4.160;2023-05-07T00:50:57;13.48;;;4.72;;
57635;SDS011;43465;50.728;4.160;2023-05-07T00:53:23;8.23;;;4.30;;
57635;SDS011;43465;50.728;4.160;2023-05-07T00:55:49;11.85;;;4.30;;
57635;SDS011;43465;50.728;4.160;2023-05-07T00:58:16;10.48;;;4.57;;
57635;SDS011;43465;50.728;4.160;2023-05-07T01:00:41;6.38;;;3.72;;
57635;SDS011;43465;50.728;4.160;2023-05-07T01:03:07;7.57;;;3.80;;
57635;SDS011;43465;50.728;4.160;2023-05-07T01:05:33;6.43;;;3.67;;
57635;SDS011;43465;50.728;4.160;2023-05-07T01:08:00;10.68;;;3.90;;
57635;SDS011;43465;50.728;4.160;2023-05-07T01:10:27;8.60;;;4.00;;
57635;SDS011;43465;50.728;4.160;2023-05-07T01:12:55;9.52;;;3.75;;
57635;SDS011;43465;50.728;4.160;2023-05-07T01:15:23;10.27;;;3.80;;
57635;SDS011;43465;50.728;4.160;2023-05-07T01:17:49;11.02;;;4.00;;
57635;SDS011;43465;50.728;4.160;2023-05-07T01:20:15;7.20;;;3.92;;
57635;SDS011;43465;50.728;4.160;2023-05-07T01:22:40;7.78;;;3.45;;
57635;SDS011;43465;50.728;4.160;2023-05-07T01:25:08;8.23;;;3.90;;
57635;SDS011;43465;50.728;4.160;2023-05-07T01:27:34;9.07;;;4.30;;
57635;SDS011;43465;50.728;4.160;2023-05-07T01:30:00;9.60;;;4.68;;
57635;SDS011;43465;50.728;4.160;2023-05-07T01:32:31;9.55;;;4.50;;
57635;SDS011;43465;50.728;4.160;2023-05-07T01:34:58;12.30;;;4.83;;
57635;SDS011;43465;50.728;4.160;2023-05-07T01:37:26;12.57;;;4.55;;
57635;SDS011;43465;50.728;4.160;2023-05-07T01:39:52;12.25;;;4.90;;
57635;SDS011;43465;50.728;4.160;2023-05-07T01:42:18;10.25;;;4.78;;
57635;SDS011;43465;50.728;4.160;2023-05-07T01:44:44;8.80;;;4.65;;
57635;SDS011;43465;50.728;4.160;2023-05-07T01:47:11;13.27;;;4.97;;
57635;SDS011;43465;50.728;4.160;2023-05-07T01:49:38;13.27;;;5.38;;
57635;SDS011;43465;50.728;4.160;2023-05-07T01:52:04;11.00;;;5.05;;
57635;SDS011;43465;50.728;4.160;2023-05-07T01:54:30;9.40;;;4.72;;
57635;SDS011;43465;50.728;4.160;2023-05-07T01:56:56;7.60;;;4.15;;
57635;SDS011;43465;50.728;4.160;2023-05-07T01:59:22;10.45;;;4.82;;
57635;SDS011;43465;50.728;4.160;2023-05-07T02:01:47;9.10;;;4.60;;
57635;SDS011;43465;50.728;4.160;2023-05-07T02:04:13;10.65;;;4.80;;
57635;SDS011;43465;50.728;4.160;2023-05-07T02:06:39;13.73;;;4.70;;
57635;SDS011;43465;50.728;4.160;2023-05-07T02:09:04;12.20;;;4.78;;
57635;SDS011;43465;50.728;4.160;2023-05-07T02:11:30;8.90;;;4.45;;
57635;SDS011;43465;50.728;4.160;2023-05-07T02:13:55;11.43;;;4.43;;
57635;SDS011;43465;50.728;4.160;2023-05-07T02:16:21;7.95;;;4.40;;
57635;SDS011;43465;50.728;4.160;2023-05-07T02:18:48;7.63;;;4.03;;
57635;SDS011;43465;50.728;4.160;2023-05-07T02:21:14;9.65;;;4.22;;
57635;SDS011;43465;50.728;4.160;2023-05-07T02:23:39;8.90;;;4.65;;
57635;SDS011;43465;50.728;4.160;2023-05-07T02:26:05;10.32;;;3.95;;
57635;SDS011;43465;50.728;4.160;2023-05-07T02:28:31;8.57;;;4.60;;
57635;SDS011;43465;50.728;4.160;2023-05-07T02:30:56;12.77;;;4.60;;
57635;SDS011;43465;50.728;4.160;2023-05-07T02:33:24;8.63;;;4.53;;
57635;SDS011;43465;50.728;4.160;2023-05-07T02:35:50;7.50;;;4.18;;
57635;SDS011;43465;50.728;4.160;2023-05-07T02:38:17;6.80;;;4.18;;
57635;SDS011;43465;50.728;4.160;2023-05-07T02:40:42;10.88;;;4.57;;
57635;SDS011;43465;50.728;4.160;2023-05-07T02:43:08;8.68;;;4.55;;
57635;SDS011;43465;50.728;4.160;2023-05-07T02:45:34;8.50;;;4.20;;
57635;SDS011;43465;50.728;4.160;2023-05-07T02:48:02;8.55;;;3.92;;
57635;SDS011;43465;50.728;4.160;2023-05-07T02:50:28;8.85;;;4.03;;
57635;SDS011;43465;50.728;4.160;2023-05-07T02:52:54;12.77;;;4.45;;
57635;SDS011;43465;50.728;4.160;2023-05-07T02:55:20;10.82;;;4.85;;
57635;SDS011;43465;50.728;4.160;2023-05-07T02:57:46;11.95;;;4.93;;
57635;SDS011;43465;50.728;4.160;2023-05-07T03:00:15;7.82;;;4.38;;
57635;SDS011;43465;50.728;4.160;2023-05-07T03:02:42;9.95;;;4.70;;
57635;SDS011;43465;50.728;4.160;2023-05-07T03:05:09;8.07;;;4.47;;
57635;SDS011;43465;50.728;4.160;2023-05-07T03:07:35;11.73;;;4.93;;
57635;SDS011;43465;50.728;4.160;2023-05-07T03:10:01;9.38;;;4.45;;
57635;SDS011;43465;50.728;4.160;2023-05-07T03:12:27;10.60;;;5.30;;
57635;SDS011;43465;50.728;4.160;2023-05-07T03:14:53;10.02;;;4.78;;
57635;SDS011;43465;50.728;4.160;2023-05-07T03:17:18;11.35;;;4.82;;
57635;SDS011;43465;50.728;4.160;2023-05-07T03:19:45;6.75;;;4.53;;
57635;SDS011;43465;50.728;4.160;2023-05-07T03:22:10;9.20;;;4.25;;
57635;SDS011;43465;50.728;4.160;2023-05-07T03:24:36;5.38;;;4.05;;
57635;SDS011;43465;50.728;4.160;2023-05-07T03:27:01;8.73;;;4.40;;
57635;SDS011;43465;50.728;4.160;2023-05-07T03:29:27;8.32;;;4.47;;
57635;SDS011;43465;50.728;4.160;2023-05-07T03:31:53;6.97;;;4.28;;
57635;SDS011;43465;50.728;4.160;2023-05-07T03:34:19;7.75;;;4.57;;
57635;SDS011;43465;50.728;4.160;2023-05-07T03:36:47;11.23;;;4.72;;
57635;SDS011;43465;50.728;4.160;2023-05-07T03:39:13;8.32;;;4.80;;
57635;SDS011;43465;50.728;4.160;2023-05-07T03:41:39;10.70;;;4.65;;
57635;SDS011;43465;50.728;4.160;2023-05-07T03:44:05;8.25;;;4.65;;
57635;SDS011;43465;50.728;4.160;2023-05-07T03:46:31;7.30;;;4.80;;
57635;SDS011;43465;50.728;4.160;2023-05-07T03:48:57;10.18;;;4.63;;
57635;SDS011;43465;50.728;4.160;2023-05-07T03:51:23;9.38;;;5.28;;
57635;SDS011;43465;50.728;4.160;2023-05-07T03:53:49;9.00;;;4.70;;
57635;SDS011;43465;50.728;4.160;2023-05-07T03:56:17;10.60;;;5.57;;
57635;SDS011;43465;50.728;4.160;2023-05-07T03:58:43;12.70;;;5.68;;
57635;SDS011;43465;50.728;4.160;2023-05-07T04:01:09;7.65;;;4.90;;
57635;SDS011;43465;50.728;4.160;2023-05-07T04:03:35;7.13;;;4.30;;
57635;SDS011;43465;50.728;4.160;2023-05-07T04:06:00;11.32;;;4.75;;
57635;SDS011;43465;50.728;4.160;2023-05-07T04:08:26;9.88;;;5.25;;
57635;SDS011;43465;50.728;4.160;2023-05-07T04:10:55;12.80;;;5.13;;
57635;SDS011;43465;50.728;4.160;2023-05-07T04:13:21;8.73;;;5.03;;
57635;SDS011;43465;50.728;4.160;2023-05-07T04:15:47;8.32;;;3.97;;
57635;SDS011;43465;50.728;4.160;2023-05-07T04:18:14;9.50;;;4.18;;
57635;SDS011;43465;50.728;4.160;2023-05-07T04:20:40;8.18;;;4.28;;
57635;SDS011;43465;50.728;4.160;2023-05-07T04:23:06;6.88;;;4.53;;
57635;SDS011;43465;50.728;4.160;2023-05-07T04:25:32;9.30;;;4.43;;
57635;SDS011;43465;50.728;4.160;2023-05-07T04:27:58;10.27;;;4.40;;
57635;SDS011;43465;50.728;4.160;2023-05-07T04:30:23;8.05;;;4.65;;
57635;SDS011;43465;50.728;4.160;2023-05-07T04:32:49;8.23;;;4.00;;
57635;SDS011;43465;50.728;4.160;2023-05-07T04:35:15;6.97;;;4.07;;
57635;SDS011;43465;50.728;4.160;2023-05-07T04:37:42;7.78;;;4.30;;
57635;SDS011;43465;50.728;4.160;2023-05-07T04:40:07;6.30;;;4.47;;
57635;SDS011;43465;50.728;4.160;2023-05-07T04:42:33;7.22;;;4.38;;
57635;SDS011;43465;50.728;4.160;2023-05-07T04:44:59;10.00;;;4.70;;
57635;SDS011;43465;50.728;4.160;2023-05-07T04:47:26;10.98;;;5.25;;
57635;SDS011;43465;50.728;4.160;2023-05-07T04:49:51;8.88;;;4.80;;
57635;SDS011;43465;50.728;4.160;2023-05-07T04:52:17;10.95;;;5.43;;
57635;SDS011;43465;50.728;4.160;2023-05-07T04:54:42;10.23;;;5.30;;
57635;SDS011;43465;50.728;4.160;2023-05-07T04:57:08;11.80;;;5.43;;
57635;SDS011;43465;50.728;4.160;2023-05-07T04:59:34;10.30;;;5.10;;
57635;SDS011;43465;50.728;4.160;2023-05-07T05:02:00;10.48;;;5.20;;
57635;SDS011;43465;50.728;4.160;2023-05-07T05:04:26;8.82;;;5.03;;
57635;SDS011;43465;50.728;4.160;2023-05-07T05:06:52;8.85;;;5.25;;
57635;SDS011;43465;50.728;4.160;2023-05-07T05:09:17;10.93;;;6.10;;
57635;SDS011;43465;50.728;4.160;2023-05-07T05:11:43;10.40;;;5.47;;
57635;SDS011;43465;50.728;4.160;2023-05-07T05:14:09;8.73;;;5.47;;
57635;SDS011;43465;50.728;4.160;2023-05-07T05:16:35;9.02;;;5.63;;
57635;SDS011;43465;50.728;4.160;2023-05-07T05:19:01;13.25;;;5.70;;
57635;SDS011;43465;50.728;4.160;2023-05-07T05:21:27;11.50;;;7.53;;
57635;SDS011;43465;50.728;4.160;2023-05-07T05:23:53;13.20;;;7.53;;
57635;SDS011;43465;50.728;4.160;2023-05-07T05:26:19;16.58;;;8.38;;
57635;SDS011;43465;50.728;4.160;2023-05-07T05:28:46;16.35;;;8.43;;
57635;SDS011;43465;50.728;4.160;2023-05-07T05:31:12;14.43;;;8.65;;
57635;SDS011;43465;50.728;4.160;2023-05-07T05:33:37;12.50;;;8.10;;
57635;SDS011;43465;50.728;4.160;2023-05-07T05:36:03;15.95;;;9.18;;
57635;SDS011;43465;50.728;4.160;2023-05-07T05:38:29;13.57;;;8.18;;
57635;SDS011;43465;50.728;4.160;2023-05-07T05:40:55;15.32;;;7.78;;
57635;SDS011;43465;50.728;4.160;2023-05-07T05:43:20;17.58;;;8.10;;
57635;SDS011;43465;50.728;4.160;2023-05-07T05:45:46;18.35;;;7.97;;
57635;SDS011;43465;50.728;4.160;2023-05-07T05:48:12;16.45;;;8.82;;
57635;SDS011;43465;50.728;4.160;2023-05-07T05:50:37;17.77;;;9.30;;
57635;SDS011;43465;50.728;4.160;2023-05-07T05:53:03;13.25;;;8.80;;
57635;SDS011;43465;50.728;4.160;2023-05-07T05:55:29;15.52;;;9.60;;
57635;SDS011;43465;50.728;4.160;2023-05-07T05:57:57;18.00;;;9.93;;
57635;SDS011;43465;50.728;4.160;2023-05-07T06:00:23;16.35;;;9.07;;
57635;SDS011;43465;50.728;4.160;2023-05-07T06:02:49;18.13;;;9.35;;
57635;SDS011;43465;50.728;4.160;2023-05-07T06:05:14;15.02;;;9.90;;
57635;SDS011;43465;50.728;4.160;2023-05-07T06:07:40;17.67;;;9.65;;
57635;SDS011;43465;50.728;4.160;2023-05-07T06:10:06;18.45;;;9.50;;
57635;SDS011;43465;50.728;4.160;2023-05-07T06:12:32;18.20;;;10.23;;
57635;SDS011;43465;50.728;4.160;2023-05-07T06:14:58;18.42;;;10.10;;
57635;SDS011;43465;50.728;4.160;2023-05-07T06:17:23;18.23;;;9.13;;
57635;SDS011;43465;50.728;4.160;2023-05-07T06:19:49;18.52;;;9.70;;
57635;SDS011;43465;50.728;4.160;2023-05-07T06:22:15;13.02;;;9.30;;
57635;SDS011;43465;50.728;4.160;2023-05-07T06:24:40;11.30;;;9.00;;
57635;SDS011;43465;50.728;4.160;2023-05-07T06:27:06;15.52;;;9.38;;
57635;SDS011;43465;50.728;4.160;2023-05-07T06:29:31;17.80;;;9.02;;
57635;SDS011;43465;50.728;4.160;2023-05-07T06:32:11;13.15;;;8.32;;
57635;SDS011;43465;50.728;4.160;2023-05-07T06:34:38;12.15;;;8.38;;
57635;SDS011;43465;50.728;4.160;2023-05-07T06:37:05;16.05;;;8.70;;
57635;SDS011;43465;50.728;4.160;2023-05-07T06:39:30;15.00;;;8.35;;
57635;SDS011;43465;50.728;4.160;2023-05-07T06:41:56;13.48;;;7.57;;
57635;SDS011;43465;50.728;4.160;2023-05-07T06:44:22;12.55;;;7.75;;
57635;SDS011;43465;50.728;4.160;2023-05-07T06:46:48;12.60;;;7.63;;
57635;SDS011;43465;50.728;4.160;2023-05-07T06:49:14;10.65;;;7.30;;
57635;SDS011;43465;50.728;4.160;2023-05-07T06:51:40;12.27;;;7.15;;
57635;SDS011;43465;50.728;4.160;2023-05-07T06:54:06;8.35;;;6.68;;
57635;SDS011;43465;50.728;4.160;2023-05-07T06:56:32;11.60;;;6.93;;
57635;SDS011;43465;50.728;4.160;2023-05-07T06:58:59;10.57;;;6.97;;
57635;SDS011;43465;50.728;4.160;2023-05-07T07:01:25;10.50;;;6.53;;
57635;SDS011;43465;50.728;4.160;2023-05-07T07:03:51;9.98;;;6.38;;
57635;SDS011;43465;50.728;4.160;2023-05-07T07:06:17;11.23;;;6.20;;
57635;SDS011;43465;50.728;4.160;2023-05-07T07:08:42;8.27;;;5.93;;
57635;SDS011;43465;50.728;4.160;2023-05-07T07:11:10;10.93;;;5.72;;
57635;SDS011;43465;50.728;4.160;2023-05-07T07:13:36;7.15;;;6.00;;
57635;SDS011;43465;50.728;4.160;2023-05-07T07:16:02;9.93;;;6.13;;
57635;SDS011;43465;50.728;4.160;2023-05-07T07:18:28;9.93;;;5.78;;
57635;SDS011;43465;50.728;4.160;2023-05-07T07:20:53;8.18;;;5.30;;
57635;SDS011;43465;50.728;4.160;2023-05-07T07:23:19;7.15;;;5.65;;
57635;SDS011;43465;50.728;4.160;2023-05-07T07:25:45;9.43;;;5.28;;
57635;SDS011;43465;50.728;4.160;2023-05-07T07:28:11;7.32;;;5.60;;
57635;SDS011;43465;50.728;4.160;2023-05-07T07:30:37;10.05;;;5.45;;
57635;SDS011;43465;50.728;4.160;2023-05-07T07:33:03;8.77;;;5.13;;
57635;SDS011;43465;50.728;4.160;2023-05-07T07:35:29;9.05;;;5.00;;
57635;SDS011;43465;50.728;4.160;2023-05-07T07:37:55;8.95;;;5.50;;
57635;SDS011;43465;50.728;4.160;2023-05-07T07:40:21;6.57;;;5.07;;
57635;SDS011;43465;50.728;4.160;2023-05-07T07:42:47;9.27;;;5.10;;
57635;SDS011;43465;50.728;4.160;2023-05-07T07:45:12;6.20;;;4.65;;
57635;SDS011;43465;50.728;4.160;2023-05-07T07:47:39;10.23;;;5.07;;
57635;SDS011;43465;50.728;4.160;2023-05-07T07:50:05;7.07;;;5.53;;
57635;SDS011;43465;50.728;4.160;2023-05-07T07:52:32;5.65;;;4.95;;
57635;SDS011;43465;50.728;4.160;2023-05-07T07:54:58;7.72;;;4.95;;
57635;SDS011;43465;50.728;4.160;2023-05-07T07:57:23;8.05;;;5.05;;
57635;SDS011;43465;50.728;4.160;2023-05-07T07:59:49;9.25;;;5.47;;
57635;SDS011;43465;50.728;4.160;2023-05-07T08:02:16;6.78;;;4.57;;
57635;SDS011;43465;50.728;4.160;2023-05-07T08:04:42;10.02;;;5.40;;
57635;SDS011;43465;50.728;4.160;2023-05-07T08:07:08;7.75;;;5.50;;
57635;SDS011;43465;50.728;4.160;2023-05-07T08:09:34;7.65;;;5.47;;
57635;SDS011;43465;50.728;4.160;2023-05-07T08:12:00;7.47;;;5.18;;
57635;SDS011;43465;50.728;4.160;2023-05-07T08:14:26;7.00;;;5.60;;
57635;SDS011;43465;50.728;4.160;2023-05-07T08:16:53;13.10;;;6.68;;
57635;SDS011;43465;50.728;4.160;2023-05-07T08:19:19;8.05;;;5.75;;
57635;SDS011;43465;50.728;4.160;2023-05-07T08:21:45;8.68;;;5.90;;
57635;SDS011;43465;50.728;4.160;2023-05-07T08:24:13;8.20;;;5.78;;
57635;SDS011;43465;50.728;4.160;2023-05-07T08:26:39;8.18;;;5.53;;
57635;SDS011;43465;50.728;4.160;2023-05-07T08:29:05;7.72;;;5.25;;
57635;SDS011;43465;50.728;4.160;2023-05-07T08:31:31;5.80;;;4.50;;
57635;SDS011;43465;50.728;4.160;2023-05-07T08:33:57;6.90;;;5.03;;
57635;SDS011;43465;50.728;4.160;2023-05-07T08:36:23;12.18;;;5.85;;
57635;SDS011;43465;50.728;4.160;2023-05-07T08:38:50;5.70;;;4.93;;
57635;SDS011;43465;50.728;4.160;2023-05-07T08:41:16;6.80;;;5.05;;
57635;SDS011;43465;50.728;4.160;2023-05-07T08:43:42;9.00;;;5.50;;
57635;SDS011;43465;50.728;4.160;2023-05-07T08:46:18;6.60;;;4.90;;
57635;SDS011;43465;50.728;4.160;2023-05-07T08:48:47;7.50;;;5.65;;
57635;SDS011;43465;50.728;4.160;2023-05-07T08:51:15;7.63;;;5.95;;
57635;SDS011;43465;50.728;4.160;2023-05-07T08:53:43;7.38;;;4.80;;
57635;SDS011;43465;50.728;4.160;2023-05-07T08:56:09;5.90;;;5.30;;
57635;SDS011;43465;50.728;4.160;2023-05-07T08:58:36;5.97;;;4.93;;
57635;SDS011;43465;50.728;4.160;2023-05-07T09:01:14;7.28;;;5.80;;
57635;SDS011;43465;50.728;4.160;2023-05-07T09:03:43;8.65;;;5.78;;
57635;SDS011;43465;50.728;4.160;2023-05-07T09:06:10;6.95;;;4.95;;
57635;SDS011;43465;50.728;4.160;2023-05-07T09:08:36;7.85;;;6.15;;
57635;SDS011;43465;50.728;4.160;2023-05-07T09:11:02;7.22;;;5.53;;
57635;SDS011;43465;50.728;4.160;2023-05-07T09:13:28;7.75;;;5.55;;
57635;SDS011;43465;50.728;4.160;2023-05-07T09:15:54;9.65;;;6.43;;
57635;SDS011;43465;50.728;4.160;2023-05-07T09:18:20;10.43;;;6.30;;
57635;SDS011;43465;50.728;4.160;2023-05-07T09:20:49;10.45;;;6.05;;
57635;SDS011;43465;50.728;4.160;2023-05-07T09:23:15;7.63;;;5.90;;
57635;SDS011;43465;50.728;4.160;2023-05-07T09:25:41;7.13;;;5.68;;
57635;SDS011;43465;50.728;4.160;2023-05-07T09:28:07;7.88;;;5.30;;
57635;SDS011;43465;50.728;4.160;2023-05-07T09:30:35;6.78;;;5.13;;
57635;SDS011;43465;50.728;4.160;2023-05-07T09:33:01;8.77;;;6.10;;
57635;SDS011;43465;50.728;4.160;2023-05-07T09:35:27;7.88;;;5.63;;
57635;SDS011;43465;50.728;4.160;2023-05-07T09:37:58;10.95;;;6.40;;
57635;SDS011;43465;50.728;4.160;2023-05-07T09:40:25;9.13;;;6.10;;
57635;SDS011;43465;50.728;4.160;2023-05-07T09:42:52;7.60;;;5.70;;
57635;SDS011;43465;50.728;4.160;2023-05-07T09:45:22;8.73;;;6.05;;
57635;SDS011;43465;50.728;4.160;2023-05-07T09:47:53;7.60;;;5.43;;
57635;SDS011;43465;50.728;4.160;2023-05-07T09:50:22;7.93;;;6.00;;
57635;SDS011;43465;50.728;4.160;2023-05-07T09:52:54;10.07;;;5.93;;
57635;SDS011;43465;50.728;4.160;2023-05-07T09:55:21;8.93;;;5.68;;
57635;SDS011;43465;50.728;4.160;2023-05-07T09:57:49;6.65;;;5.88;;
57635;SDS011;43465;50.728;4.160;2023-05-07T10:00:17;7.63;;;5.55;;
57635;SDS011;43465;50.728;4.160;2023-05-07T10:02:45;9.40;;;5.50;;
57635;SDS011;43465;50.728;4.160;2023-05-07T10:05:14;5.70;;;5.05;;
57635;SDS011;43465;50.728;4.160;2023-05-07T10:07:41;6.38;;;5.28;;
57635;SDS011;43465;50.728;4.160;2023-05-07T10:10:08;9.27;;;5.28;;
57635;SDS011;43465;50.728;4.160;2023-05-07T10:12:35;8.35;;;5.57;;
57635;SDS011;43465;50.728;4.160;2023-05-07T10:15:08;6.05;;;5.00;;
57635;SDS011;43465;50.728;4.160;2023-05-07T10:17:38;5.28;;;4.78;;
57635;SDS011;43465;50.728;4.160;2023-05-07T10:20:05;7.13;;;5.47;;
57635;SDS011;43465;50.728;4.160;2023-05-07T10:22:39;7.03;;;5.57;;
57635;SDS011;43465;50.728;4.160;2023-05-07T10:25:25;6.70;;;5.30;;
57635;SDS011;43465;50.728;4.160;2023-05-07T10:27:53;7.05;;;5.32;;
57635;SDS011;43465;50.728;4.160;2023-05-07T10:30:44;6.07;;;5.20;;
57635;SDS011;43465;50.728;4.160;2023-05-07T10:33:32;5.28;;;4.78;;
57635;SDS011;43465;50.728;4.160;2023-05-07T10:36:00;4.65;;;4.18;;
57635;SDS011;43465;50.728;4.160;2023-05-07T10:38:29;5.35;;;4.85;;
57635;SDS011;43465;50.728;4.160;2023-05-07T10:40:55;6.93;;;5.20;;
57635;SDS011;43465;50.728;4.160;2023-05-07T10:43:21;6.78;;;4.57;;
57635;SDS011;43465;50.728;4.160;2023-05-07T10:46:32;4.45;;;4.05;;
57635;SDS011;43465;50.728;4.160;2023-05-07T10:51:31;3.38;;;3.08;;
57635;SDS011;43465;50.728;4.160;2023-05-07T10:54:32;5.93;;;3.72;;
57635;SDS011;43465;50.728;4.160;2023-05-07T10:56:51;4.15;;;2.92;;
57635;SDS011;43465;50.728;4.160;2023-05-07T11:01:58;4.28;;;2.60;;
57635;SDS011;43465;50.728;4.160;2023-05-07T11:04:25;4.25;;;2.92;;
57635;SDS011;43465;50.728;4.160;2023-05-07T11:15:04;5.15;;;2.47;;
57635;SDS011;43465;50.728;4.160;2023-05-07T11:17:34;3.40;;;3.00;;
57635;SDS011;43465;50.728;4.160;2023-05-07T11:22:42;4.15;;;3.03;;
57635;SDS011;43465;50.728;4.160;2023-05-07T11:25:08;5.10;;;4.07;;
57635;SDS011;43465;50.728;4.160;2023-05-07T11:27:33;5.45;;;4.20;;
57635;SDS011;43465;50.728;4.160;2023-05-07T11:29:59;6.88;;;6.10;;
57635;SDS011;43465;50.728;4.160;2023-05-07T11:32:29;9.50;;;8.15;;
57635;SDS011;43465;50.728;4.160;2023-05-07T11:34:59;9.48;;;8.50;;
57635;SDS011;43465;50.728;4.160;2023-05-07T11:37:26;10.80;;;9.70;;
57635;SDS011;43465;50.728;4.160;2023-05-07T11:40:04;12.65;;;10.45;;
57635;SDS011;43465;50.728;4.160;2023-05-07T11:42:32;14.70;;;13.32;;
57635;SDS011;43465;50.728;4.160;2023-05-07T11:44:59;14.95;;;13.45;;
57635;SDS011;43465;50.728;4.160;2023-05-07T11:47:25;15.10;;;13.50;;
57635;SDS011;43465;50.728;4.160;2023-05-07T11:49:53;14.25;;;12.85;;
57635;SDS011;43465;50.728;4.160;2023-05-07T11:52:20;14.63;;;13.20;;
57635;SDS011;43465;50.728;4.160;2023-05-07T11:54:57;18.42;;;16.58;;
57635;SDS011;43465;50.728;4.160;2023-05-07T11:57:24;18.55;;;16.63;;
57635;SDS011;43465;50.728;4.160;2023-05-07T11:59:56;19.00;;;17.00;;
57635;SDS011;43465;50.728;4.160;2023-05-07T12:02:23;18.52;;;16.73;;
57635;SDS011;43465;50.728;4.160;2023-05-07T12:04:53;13.50;;;12.30;;
57635;SDS011;43465;50.728;4.160;2023-05-07T12:07:19;16.73;;;15.02;;
57635;SDS011;43465;50.728;4.160;2023-05-07T12:09:45;18.35;;;15.43;;
57635;SDS011;43465;50.728;4.160;2023-05-07T12:12:12;14.77;;;13.23;;
57635;SDS011;43465;50.728;4.160;2023-05-07T12:14:40;11.88;;;10.65;;
57635;SDS011;43465;50.728;4.160;2023-05-07T12:17:07;10.93;;;9.85;;
57635;SDS011;43465;50.728;4.160;2023-05-07T12:19:34;10.82;;;9.73;;
57635;SDS011;43465;50.728;4.160;2023-05-07T12:22:02;10.80;;;9.48;;
57635;SDS011;43465;50.728;4.160;2023-05-07T12:24:28;11.40;;;10.30;;
57635;SDS011;43465;50.728;4.160;2023-05-07T12:27:06;10.43;;;9.13;;
57635;SDS011;43465;50.728;4.160;2023-05-07T12:29:32;12.48;;;8.95;;
57635;SDS011;43465;50.728;4.160;2023-05-07T12:31:57;9.98;;;8.98;;
57635;SDS011;43465;50.728;4.160;2023-05-07T12:34:23;10.57;;;9.48;;
57635;SDS011;43465;50.728;4.160;2023-05-07T12:36:49;9.95;;;8.90;;
57635;SDS011;43465;50.728;4.160;2023-05-07T12:39:15;9.13;;;8.32;;
57635;SDS011;43465;50.728;4.160;2023-05-07T12:41:56;9.52;;;8.63;;
57635;SDS011;43465;50.728;4.160;2023-05-07T12:44:24;9.70;;;8.40;;
57635;SDS011;43465;50.728;4.160;2023-05-07T12:47:01;9.73;;;8.77;;
57635;SDS011;43465;50.728;4.160;2023-05-07T12:49:27;9.25;;;8.45;;
57635;SDS011;43465;50.728;4.160;2023-05-07T12:51:53;9.23;;;8.45;;
57635;SDS011;43465;50.728;4.160;2023-05-07T12:54:32;9.60;;;8.60;;
57635;SDS011;43465;50.728;4.160;2023-05-07T12:57:03;9.02;;;8.23;;
57635;SDS011;43465;50.728;4.160;2023-05-07T12:59:33;10.95;;;9.48;;
57635;SDS011;43465;50.728;4.160;2023-05-07T13:02:02;11.10;;;10.10;;
57635;SDS011;43465;50.728;4.160;2023-05-07T13:04:28;11.63;;;10.43;;
57635;SDS011;43465;50.728;4.160;2023-05-07T13:06:54;11.48;;;10.48;;
57635;SDS011;43465;50.728;4.160;2023-05-07T13:09:20;11.18;;;10.18;;
57635;SDS011;43465;50.728;4.160;2023-05-07T13:11:45;12.27;;;11.18;;
57635;SDS011;43465;50.728;4.160;2023-05-07T13:14:11;12.93;;;11.65;;
57635;SDS011;43465;50.728;4.160;2023-05-07T13:16:37;9.98;;;9.07;;
57635;SDS011;43465;50.728;4.160;2023-05-07T13:19:03;12.75;;;10.23;;
57635;SDS011;43465;50.728;4.160;2023-05-07T13:21:29;14.77;;;13.48;;
57635;SDS011;43465;50.728;4.160;2023-05-07T13:23:56;15.25;;;13.73;;
57635;SDS011;43465;50.728;4.160;2023-05-07T13:26:23;14.02;;;12.75;;
57635;SDS011;43465;50.728;4.160;2023-05-07T13:28:49;14.43;;;13.10;;
57635;SDS011;43465;50.728;4.160;2023-05-07T13:31:15;14.43;;;13.02;;
57635;SDS011;43465;50.728;4.160;2023-05-07T13:33:42;15.35;;;13.75;;
57635;SDS011;43465;50.728;4.160;2023-05-07T13:36:07;12.13;;;10.98;;
57635;SDS011;43465;50.728;4.160;2023-05-07T13:38:34;11.82;;;10.57;;
57635;SDS011;43465;50.728;4.160;2023-05-07T13:41:00;10.07;;;9.07;;
57635;SDS011;43465;50.728;4.160;2023-05-07T13:43:25;9.18;;;8.38;;
57635;SDS011;43465;50.728;4.160;2023-05-07T13:45:51;8.18;;;7.47;;
57635;SDS011;43465;50.728;4.160;2023-05-07T13:48:17;7.53;;;6.80;;
57635;SDS011;43465;50.728;4.160;2023-05-07T13:50:42;7.10;;;6.22;;
57635;SDS011;43465;50.728;4.160;2023-05-07T13:53:08;6.68;;;6.00;;
57635;SDS011;43465;50.728;4.160;2023-05-07T13:55:34;9.35;;;7.30;;
57635;SDS011;43465;50.728;4.160;2023-05-07T13:58:00;7.82;;;6.65;;
57635;SDS011;43465;50.728;4.160;2023-05-07T14:00:27;6.60;;;6.00;;
57635;SDS011;43465;50.728;4.160;2023-05-07T14:02:53;7.05;;;6.22;;
57635;SDS011;43465;50.728;4.160;2023-05-07T14:05:19;7.72;;;6.97;;
57635;SDS011;43465;50.728;4.160;2023-05-07T14:07:45;7.43;;;6.50;;
57635;SDS011;43465;50.728;4.160;2023-05-07T14:10:12;7.28;;;6.57;;
57635;SDS011;43465;50.728;4.160;2023-05-07T14:12:38;8.07;;;7.28;;
57635;SDS011;43465;50.728;4.160;2023-05-07T14:15:04;9.32;;;7.28;;
57635;SDS011;43465;50.728;4.160;2023-05-07T14:17:30;7.95;;;7.13;;
57635;SDS011;43465;50.728;4.160;2023-05-07T14:19:55;7.63;;;6.93;;
57635;SDS011;43465;50.728;4.160;2023-05-07T14:22:22;7.32;;;6.63;;
57635;SDS011;43465;50.728;4.160;2023-05-07T14:24:48;7.35;;;6.75;;
57635;SDS011;43465;50.728;4.160;2023-05-07T14:27:15;7.35;;;6.70;;
57635;SDS011;43465;50.728;4.160;2023-05-07T14:29:41;7.95;;;7.00;;
57635;SDS011;43465;50.728;4.160;2023-05-07T14:32:11;8.05;;;7.15;;
57635;SDS011;43465;50.728;4.160;2023-05-07T14:34:37;7.85;;;7.07;;
57635;SDS011;43465;50.728;4.160;2023-05-07T14:37:02;7.57;;;6.80;;
57635;SDS011;43465;50.728;4.160;2023-05-07T14:39:28;7.03;;;6.43;;
57635;SDS011;43465;50.728;4.160;2023-05-07T14:41:54;9.02;;;6.90;;
57635;SDS011;43465;50.728;4.160;2023-05-07T14:44:21;7.03;;;6.43;;
57635;SDS011;43465;50.728;4.160;2023-05-07T14:46:46;6.70;;;6.10;;
57635;SDS011;43465;50.728;4.160;2023-05-07T14:49:13;7.95;;;7.15;;
57635;SDS011;43465;50.728;4.160;2023-05-07T14:51:45;7.43;;;6.78;;
57635;SDS011;43465;50.728;4.160;2023-05-07T14:54:12;8.75;;;7.03;;
57635;SDS011;43465;50.728;4.160;2023-05-07T14:56:38;6.78;;;6.18;;